Time;durP1;ratioP1;P1;durP2;ratioP2;P2;SDS_P1;SDS_P2;PMS_P1;PMS_P2;Temp;Humidity;BMP_temperature;BMP_pressure;BME280_temperature;BME280_humidity;BME280_pressure;Samples;Min_cycle;Max_cycle;Signal;HPM_P1;HPM_P2
2021/08/16 00:01:02;;;;;;;3.97;2.25;;;18.30;99.90;;;17.06;80.01;100681.94;2567619;30;138969;-41
2021/08/16 00:03:30;;;;;;;5.78;2.38;;;18.30;99.90;;;17.13;80.12;100667.97;2567654;30;137578;-40
2021/08/16 00:05:58;;;;;;;;;;;18.30;99.90;;;17.17;80.19;100679.28;2566844;30;138539;-41
2021/08/16 00:08:25;;;;;;;5.47;2.25;;;18.30;99.90;;;17.28;78.45;100680.22;2568367;30;137886;-40
2021/08/16 00:10:53;;;;;;;4.13;1.70;;;18.40;99.90;;;17.29;77.44;100681.88;2566913;30;138636;-40
2021/08/16 00:13:24;;;;;;;5.32;1.70;;;18.40;99.90;;;17.30;76.41;100678.88;2569107;30;136847;-40
2021/08/16 00:15:52;;;;;;;4.30;1.50;;;18.50;99.90;;;17.27;74.51;100679.41;2568408;30;137154;-41
2021/08/16 00:18:20;;;;;;;6.38;1.77;;;18.40;99.90;;;17.16;74.28;100685.91;2568029;30;137364;-40
2021/08/16 00:20:47;;;;;;;4.88;1.70;;;18.40;99.90;;;17.03;73.92;100679.72;2566200;30;139218;-40
2021/08/16 00:23:15;;;;;;;4.07;1.30;;;18.30;99.90;;;16.93;73.59;100680.41;2569121;30;137601;-40
2021/08/16 00:25:42;;;;;;;4.85;1.73;;;18.20;99.90;;;16.85;73.53;100689.13;2565215;30;138578;-40
2021/08/16 00:28:10;;;;;;;3.83;1.48;;;18.10;99.90;;;16.80;73.00;100684.41;2568852;30;138266;-43
2021/08/16 00:30:37;;;;;;;3.58;1.40;;;18.10;99.90;;;16.63;72.58;100689.13;2567499;30;138573;-41
2021/08/16 00:33:05;;;;;;;5.35;1.52;;;17.90;99.90;;;16.58;71.88;100692.69;2566137;30;136681;-41
2021/08/16 00:35:32;;;;;;;4.32;1.42;;;17.80;99.90;;;16.50;71.10;100684.84;2568910;30;137338;-41
2021/08/16 00:38:00;;;;;;;8.70;1.95;;;17.70;99.90;;;16.41;70.49;100689.97;2567282;30;137256;-40
2021/08/16 00:40:28;;;;;;;4.82;1.60;;;17.70;99.90;;;16.35;70.62;100685.47;2568169;30;139117;-40
2021/08/16 00:42:55;;;;;;;3.50;1.45;;;17.60;99.90;;;16.22;71.52;100672.91;2566917;30;138036;-40
2021/08/16 00:45:26;;;;;;;5.80;2.47;;;17.50;99.90;;;16.09;71.69;100668.59;2568186;30;138473;-42
2021/08/16 00:47:53;;;;;;;6.95;1.60;;;17.40;99.90;;;15.98;71.79;100680.56;2568436;30;137484;-41
2021/08/16 00:50:21;;;;;;;;;;;17.30;99.90;;;15.92;72.00;100683.25;2570172;30;137854;-39
2021/08/16 00:52:50;;;;;;;6.07;1.77;;;17.30;99.90;;;15.85;72.22;100685.28;2568883;30;137405;-40
2021/08/16 00:55:20;;;;;;;5.25;1.55;;;17.20;99.90;;;15.76;71.98;100693.13;2568995;30;137170;-41
2021/08/16 00:57:48;;;;;;;5.13;1.40;;;17.10;99.90;;;15.79;72.60;100697.28;2567055;30;137400;-42
2021/08/16 01:00:16;;;;;;;7.90;1.90;;;17.00;99.90;;;15.75;72.02;100691.44;2567989;30;138967;-40
2021/08/16 01:02:44;;;;;;;6.82;2.00;;;17.00;99.90;;;15.72;71.79;100696.63;2567520;30;137256;-41
2021/08/16 01:05:14;;;;;;;6.28;2.10;;;17.00;99.90;;;15.64;72.02;100698.69;2567511;30;137465;-40
2021/08/16 01:07:47;;;;;;;6.07;1.52;;;16.90;99.90;;;15.63;71.67;100699.78;2568170;30;136928;-40
2021/08/16 01:10:18;;;;;;;10.23;1.95;;;16.90;99.90;;;15.56;72.61;100701.06;2569345;30;138329;-40
2021/08/16 01:12:46;;;;;;;8.60;2.03;;;16.80;99.90;;;15.50;72.56;100700.13;2566890;30;137412;-40
2021/08/16 01:15:15;;;;;;;4.47;1.60;;;16.80;99.90;;;15.50;72.38;100700.13;2569184;30;137012;-40
2021/08/16 01:17:43;;;;;;;4.72;1.50;;;16.70;99.90;;;15.47;73.61;100697.88;2566244;30;137803;-41
2021/08/16 01:20:14;;;;;;;;;;;16.80;99.90;;;15.34;73.83;100697.09;2568211;30;137158;-40
2021/08/16 01:22:41;;;;;;;6.68;1.58;;;16.70;99.90;;;15.31;74.59;100699.53;2566035;30;138657;-40
2021/08/16 01:25:10;;;;;;;3.83;1.42;;;16.60;99.90;;;15.30;74.82;100698.69;2568108;30;138517;-41
2021/08/16 01:27:39;;;;;;;5.18;1.35;;;16.60;99.90;;;15.41;74.02;100691.44;2567573;30;136848;-41
2021/08/16 01:30:15;;;;;;;5.47;1.50;;;16.60;99.90;;;15.48;73.98;100694.03;2568140;30;138363;-43
2021/08/16 01:32:43;;;;;;;4.47;1.42;;;16.70;99.90;;;15.53;74.10;100694.97;2566863;30;136927;-42
2021/08/16 01:35:12;;;;;;;5.72;1.50;;;16.80;99.90;;;15.60;73.96;100683.78;2567738;30;138367;-41
2021/08/16 01:37:40;;;;;;;5.80;1.38;;;16.80;99.90;;;15.62;73.67;100687.13;2567909;30;137815;-41
2021/08/16 01:40:12;;;;;;;;;;;16.80;99.90;;;15.66;73.90;100688.31;2567146;30;138126;-42
2021/08/16 01:42:41;;;;;;;4.85;1.52;;;16.90;99.90;;;15.75;73.01;100685.94;2568393;30;136968;-41
2021/08/16 01:45:10;;;;;;;5.10;1.40;;;16.90;99.90;;;15.74;72.68;100692.53;2567632;30;138534;-40
2021/08/16 01:47:37;;;;;;;6.45;2.10;;;17.00;99.90;;;15.74;72.98;100697.22;2567831;30;136695;-43
2021/08/16 01:50:06;;;;;;;4.10;1.50;;;16.90;99.90;;;15.79;73.62;100691.78;2567948;30;137544;-40
2021/08/16 01:52:33;;;;;;;5.40;1.52;;;17.00;99.90;;;15.84;73.41;100691.06;2566694;30;137481;-40
2021/08/16 01:55:03;;;;;;;5.75;1.90;;;17.00;99.90;;;15.90;71.78;100695.56;2568959;30;138111;-40
2021/08/16 01:57:30;;;;;;;5.93;1.70;;;17.10;99.90;;;15.86;72.72;100688.88;2567494;30;137248;-41
2021/08/16 01:59:58;;;;;;;5.07;1.70;;;17.10;99.90;;;15.86;72.71;100689.69;2568422;30;138639;-40
2021/08/16 02:02:25;;;;;;;4.80;1.80;;;17.10;99.90;;;15.88;73.27;100687.56;2568035;30;138378;-40
2021/08/16 02:04:53;;;;;;;5.22;1.50;;;17.10;99.90;;;15.90;72.86;100685.38;2565532;30;139482;-40
2021/08/16 02:07:21;;;;;;;6.15;1.83;;;17.10;99.90;;;15.86;73.39;100688.88;2566964;30;137158;-40
2021/08/16 02:09:49;;;;;;;5.13;1.52;;;17.10;99.90;;;15.84;73.09;100689.13;2567472;30;137416;-42
2021/08/16 02:12:17;;;;;;;5.07;1.70;;;17.00;99.90;;;15.83;72.31;100679.19;2565854;30;137611;-40
2021/08/16 02:14:44;;;;;;;4.82;1.95;;;17.00;99.90;;;15.71;73.38;100676.53;2567530;30;138577;-40
2021/08/16 02:17:12;;;;;;;5.70;1.90;;;17.00;99.90;;;15.67;74.35;100678.97;2565590;30;137894;-41
2021/08/16 02:19:39;;;;;;;5.82;1.50;;;16.90;99.90;;;15.60;74.09;100681.03;2568339;30;138413;-42
2021/08/16 02:22:07;;;;;;;6.30;1.95;;;16.80;99.90;;;15.63;73.60;100683.28;2568817;30;137574;-40
2021/08/16 02:24:34;;;;;;;7.25;1.70;;;16.80;99.90;;;15.63;73.51;100675.03;2567918;30;138992;-41
2021/08/16 02:27:02;;;;;;;7.03;1.70;;;16.80;99.90;;;15.64;73.58;100676.69;2567001;30;137304;-41
2021/08/16 02:29:29;;;;;;;6.13;1.80;;;16.80;99.90;;;15.64;74.27;100687.69;2568479;30;138331;-42
2021/08/16 02:31:58;;;;;;;6.32;2.05;;;16.80;99.90;;;15.63;74.31;100675.03;2569151;30;136794;-40
2021/08/16 02:34:26;;;;;;;4.78;1.70;;;16.80;99.90;;;15.62;74.28;100673.38;2567083;30;137475;-40
2021/08/16 02:36:53;;;;;;;6.78;1.95;;;16.80;99.90;;;15.66;74.17;100674.56;2567321;30;138347;-39
2021/08/16 02:39:21;;;;;;;8.15;2.22;;;16.80;99.90;;;15.60;73.82;100666.47;2577136;30;138300;-39
2021/08/16 02:41:48;;;;;;;5.85;2.03;;;16.80;99.90;;;15.57;74.65;100670.53;2567842;30;136725;-38
2021/08/16 02:44:16;;;;;;;8.70;2.22;;;16.80;99.90;;;15.58;74.43;100668.66;2568893;30;139203;-39
2021/08/16 02:46:43;;;;;;;6.63;1.80;;;16.80;99.90;;;15.53;74.63;100670.22;2571202;30;136813;-39
2021/08/16 02:49:11;;;;;;;7.35;2.15;;;16.80;99.90;;;15.60;74.58;100681.03;2568803;30;138512;-39
2021/08/16 02:51:39;;;;;;;6.93;1.98;;;16.80;99.90;;;15.54;74.60;100676.53;2567490;30;137351;-39
2021/08/16 02:54:07;;;;;;;6.53;1.95;;;16.80;99.90;;;15.57;74.29;100669.72;2570718;30;138434;-39
2021/08/16 02:56:34;;;;;;;7.20;1.90;;;16.80;99.90;;;15.55;73.87;100666.41;2565469;30;137651;-39
2021/08/16 02:59:02;;;;;;;5.10;1.98;;;16.80;99.90;;;15.54;74.40;100671.03;2569446;30;139248;-39
2021/08/16 03:01:29;;;;;;;7.20;2.38;;;16.80;99.90;;;15.53;74.79;100661.97;2569347;30;137585;-39
2021/08/16 03:03:57;;;;;;;8.00;2.70;;;16.80;99.90;;;15.45;74.53;100662.38;2569190;30;137905;-37
2021/08/16 03:06:25;;;;;;;7.80;2.05;;;16.70;99.90;;;15.38;75.31;100646.06;2568994;30;137617;-39
2021/08/16 03:08:52;;;;;;;6.60;1.70;;;16.70;99.90;;;15.35;75.76;100641.03;2567796;30;138406;-39
2021/08/16 03:11:20;;;;;;;4.53;1.80;;;16.60;99.90;;;15.27;75.47;100649.72;2568330;30;136798;-39
2021/08/16 03:13:47;;;;;;;9.38;2.40;;;16.50;99.90;;;15.25;75.59;100646.38;2569232;30;138881;-39
2021/08/16 03:16:14;;;;;;;8.40;2.42;;;16.50;99.90;;;15.25;75.73;100649.13;2567560;30;137711;-39
2021/08/16 03:18:42;;;;;;;9.50;2.80;;;16.50;99.90;;;15.18;76.03;100643.78;2568490;30;138079;-38
2021/08/16 03:21:09;;;;;;;7.18;2.47;;;16.40;99.90;;;15.23;76.37;100643.03;2567102;30;137375;-39
2021/08/16 03:23:37;;;;;;;8.20;2.70;;;16.40;99.90;;;15.24;75.92;100639.22;2568585;30;138128;-39
2021/08/16 03:26:04;;;;;;;6.63;2.33;;;16.50;99.90;;;15.31;76.40;100645.38;2568746;30;138600;-39
2021/08/16 03:28:32;;;;;;;7.63;2.70;;;16.50;99.90;;;15.28;77.37;100637.63;2566899;30;138031;-38
2021/08/16 03:30:59;;;;;;;12.23;3.05;;;16.50;99.90;;;15.29;76.98;100639.28;2567885;30;136973;-39
2021/08/16 03:33:27;;;;;;;8.30;2.80;;;16.50;99.90;;;15.27;76.86;100630.47;2566667;30;138023;-39
2021/08/16 03:35:55;;;;;;;7.50;2.78;;;16.50;99.90;;;15.24;76.41;100630.97;2567659;30;138369;-38
2021/08/16 03:38:22;;;;;;;9.25;2.63;;;16.50;99.90;;;15.24;77.14;100641.97;2567543;30;139386;-39
2021/08/16 03:40:50;;;;;;;7.22;2.58;;;16.50;99.90;;;15.23;77.18;100640.28;2569439;30;137564;-39
2021/08/16 03:43:18;;;;;;;10.43;2.75;;;16.50;99.90;;;15.30;77.15;100638.22;2567625;30;138518;-39
2021/08/16 03:45:46;;;;;;;7.78;2.63;;;16.50;99.90;;;15.32;76.18;100636.03;2568726;30;136919;-38
2021/08/16 03:48:13;;;;;;;9.80;2.65;;;16.50;99.90;;;15.35;76.63;100641.03;2570666;30;138248;-39
2021/08/16 03:50:41;;;;;;;7.07;2.50;;;16.50;99.90;;;15.35;77.01;100645.72;2568449;30;138033;-39
2021/08/16 03:53:08;;;;;;;5.47;2.03;;;16.60;99.90;;;15.35;76.80;100654.78;2569882;30;137526;-38
2021/08/16 03:55:36;;;;;;;7.13;2.70;;;16.50;99.90;;;15.39;76.56;100650.47;2567771;30;137346;-38
2021/08/16 03:58:03;;;;;;;7.70;2.60;;;16.60;99.90;;;15.38;76.62;100656.22;2568066;30;137268;-39
2021/08/16 04:00:31;;;;;;;8.30;2.50;;;16.60;99.90;;;15.36;77.40;100637.22;2568962;30;138637;-39
2021/08/16 04:02:59;;;;;;;8.85;2.80;;;16.60;99.90;;;15.37;76.92;100638.88;2568586;30;139094;-39
2021/08/16 04:05:27;;;;;;;;;;;16.60;99.90;;;15.31;77.03;100631.63;2570084;30;137504;-39
2021/08/16 04:07:54;;;;;;;6.47;2.55;;;16.50;99.90;;;15.32;77.82;100629.72;2566725;30;137617;-39
2021/08/16 04:10:23;;;;;;;8.20;2.33;;;16.60;99.90;;;15.34;77.12;100642.13;2570454;30;137561;-39
2021/08/16 04:12:50;;;;;;;6.72;2.58;;;16.60;99.90;;;15.32;76.94;100640.72;2571052;30;139032;-39
2021/08/16 04:15:22;;;;;;;5.03;2.30;;;16.50;99.90;;;15.33;77.24;100645.13;2568575;30;137669;-39
2021/08/16 04:17:50;;;;;;;9.00;2.70;;;16.50;99.90;;;15.36;77.81;100639.97;2569035;30;137237;-39
2021/08/16 04:20:19;;;;;;;8.27;2.72;;;16.60;99.90;;;15.39;77.44;100646.88;2569487;30;137417;-39
2021/08/16 04:22:47;;;;;;;8.27;2.50;;;16.60;99.90;;;15.31;77.79;100636.31;2570576;30;138238;-39
2021/08/16 04:25:18;;;;;;;6.82;2.53;;;16.60;99.90;;;15.37;77.83;100643.56;2569151;30;137417;-39
2021/08/16 04:27:48;;;;;;;8.40;2.33;;;16.50;99.90;;;15.32;77.26;100636.03;2567592;30;138593;-38
2021/08/16 04:30:17;;;;;;;5.93;2.17;;;16.60;99.90;;;15.37;78.24;100638.88;2568317;30;136840;-39
2021/08/16 04:32:45;;;;;;;7.82;2.45;;;16.60;99.90;;;15.35;78.32;100640.22;2569334;30;137036;-39
2021/08/16 04:35:12;;;;;;;;;;;16.60;99.90;;;15.32;77.70;100647.03;2568598;30;136929;-39
2021/08/16 04:37:41;;;;;;;7.20;2.13;;;16.60;99.90;;;15.35;78.54;100646.53;2569886;30;137179;-39
2021/08/16 04:40:10;;;;;;;10.80;2.40;;;16.60;99.90;;;15.35;78.24;100656.72;2568110;30;136738;-39
2021/08/16 04:42:38;;;;;;;5.63;2.20;;;16.60;99.90;;;15.38;78.81;100650.72;2568811;30;137310;-39
2021/08/16 04:45:09;;;;;;;6.47;2.10;;;16.60;99.90;;;15.41;78.77;100650.22;2571174;30;137325;-39
2021/08/16 04:47:38;;;;;;;6.25;2.17;;;16.60;99.90;;;15.46;77.51;100649.47;2570477;30;138034;-38
2021/08/16 04:50:06;;;;;;;5.60;2.22;;;16.70;99.90;;;15.48;78.83;100650.06;2571347;30;136847;-39
2021/08/16 04:52:33;;;;;;;;;;;16.70;99.90;;;15.42;77.94;100657.38;2569390;30;137450;-39
2021/08/16 04:55:01;;;;;;;8.80;2.75;;;16.60;99.90;;;15.45;78.00;100645.06;2568002;30;137983;-39
2021/08/16 04:57:36;;;;;;;10.00;3.17;;;16.70;99.90;;;15.46;78.62;100652.22;2570215;30;139098;-39
2021/08/16 05:00:07;;;;;;;9.82;2.20;;;16.70;99.90;;;15.47;78.34;100653.88;2569965;30;136756;-38
2021/08/16 05:02:35;;;;;;;10.77;2.88;;;16.70;99.90;;;15.51;77.90;100660.56;2570514;30;139863;-39
2021/08/16 05:05:08;;;;;;;7.82;2.30;;;16.70;99.90;;;15.55;78.17;100660.91;2569907;30;137501;-39
2021/08/16 05:07:37;;;;;;;8.40;2.40;;;16.70;99.90;;;15.54;78.74;100654.56;2568609;30;139288;-39
2021/08/16 05:10:07;;;;;;;8.95;2.53;;;16.70;99.90;;;15.55;78.52;100649.91;2568533;30;137306;-39
2021/08/16 05:12:35;;;;;;;8.13;2.40;;;16.70;99.90;;;15.56;78.94;100651.56;2566206;30;138395;-39
2021/08/16 05:15:04;;;;;;;7.10;2.30;;;16.70;99.90;;;15.58;78.53;100649.41;2570260;30;137589;-39
2021/08/16 05:17:33;;;;;;;7.28;2.60;;;16.70;99.90;;;15.59;78.18;100651.88;2571587;30;138237;-39
2021/08/16 05:20:03;;;;;;;7.70;2.33;;;16.80;99.90;;;15.57;79.05;100656.78;2571821;30;136724;-39
2021/08/16 05:22:31;;;;;;;6.07;2.53;;;16.80;99.90;;;15.58;79.49;100658.47;2568978;30;138868;-39
2021/08/16 05:24:58;;;;;;;;;;;16.80;99.90;;;15.60;79.66;100655.47;2570442;30;137648;-39
2021/08/16 05:27:26;;;;;;;6.90;2.63;;;16.80;99.90;;;15.59;78.61;100662.88;2570874;30;137253;-39
2021/08/16 05:29:53;;;;;;;8.43;2.38;;;16.80;99.90;;;15.62;78.65;100656.88;2569235;30;136671;-39
2021/08/16 05:32:21;;;;;;;7.07;2.38;;;16.80;99.90;;;15.67;78.92;100661.63;2569907;30;138204;-39
2021/08/16 05:34:48;;;;;;;8.57;2.60;;;16.80;99.90;;;15.66;78.53;100666.31;2569866;30;137482;-39
2021/08/16 05:37:16;;;;;;;11.35;2.90;;;16.80;99.90;;;15.67;79.04;100648.72;2569491;30;139226;-39
2021/08/16 05:39:44;;;;;;;6.32;2.30;;;16.90;99.90;;;15.63;79.03;100655.78;2567993;30;137360;-39
2021/08/16 05:42:15;;;;;;;7.25;2.63;;;16.80;99.90;;;15.62;79.52;100656.88;2570244;30;137127;-39
2021/08/16 05:44:43;;;;;;;6.78;2.65;;;16.80;99.90;;;15.67;79.13;100658.88;2569107;30;137399;-39
2021/08/16 05:47:11;;;;;;;7.05;2.42;;;16.80;99.90;;;15.69;78.96;100667.72;2569576;30;137080;-39
2021/08/16 05:49:38;;;;;;;10.82;2.88;;;16.80;99.90;;;15.72;79.24;100658.13;2565770;30;137374;-39
2021/08/16 05:52:06;;;;;;;8.10;2.60;;;16.90;99.90;;;15.70;79.24;100658.38;2570225;30;137588;-39
2021/08/16 05:54:34;;;;;;;8.63;2.80;;;16.90;99.90;;;15.71;79.00;100661.97;2569741;30;137521;-39
2021/08/16 05:57:02;;;;;;;5.75;2.38;;;16.90;99.90;;;15.75;79.46;100663.94;2567120;30;139383;-39
2021/08/16 05:59:29;;;;;;;5.45;2.30;;;16.90;99.90;;;15.74;79.32;100658.72;2568686;30;137113;-38
2021/08/16 06:01:57;;;;;;;6.68;2.25;;;16.90;99.90;;;15.74;79.80;100661.47;2569944;30;139098;-39
2021/08/16 06:04:24;;;;;;;4.65;2.28;;;16.90;99.90;;;15.73;79.89;100657.06;2569143;30;137306;-39
2021/08/16 06:06:52;;;;;;;5.80;2.30;;;16.90;99.90;;;15.75;80.37;100654.88;2569604;30;136870;-38
2021/08/16 06:09:19;;;;;;;8.77;2.30;;;16.90;99.90;;;15.77;79.94;100663.72;2568279;30;137807;-39
2021/08/16 06:11:47;;;;;;;;;;;17.00;99.90;;;15.81;79.25;100664.88;2569133;30;138207;-39
2021/08/16 06:14:15;;;;;;;7.20;2.60;;;17.00;99.90;;;15.85;79.09;100667.97;2568419;30;137983;-39
2021/08/16 06:16:42;;;;;;;9.00;2.55;;;17.00;99.90;;;15.89;78.52;100658.16;2568506;30;137052;-38
2021/08/16 06:19:10;;;;;;;9.38;2.70;;;17.00;99.90;;;15.86;79.70;100667.69;2569309;30;136864;-38
2021/08/16 06:21:42;;;;;;;6.10;2.42;;;17.00;99.90;;;15.85;78.51;100666.03;2570168;30;138110;-39
2021/08/16 06:24:11;;;;;;;8.90;2.35;;;17.00;99.90;;;15.90;78.31;100668.06;2571313;30;137532;-38
2021/08/16 06:26:40;;;;;;;9.52;2.53;;;17.10;99.90;;;15.90;78.64;100655.13;2566762;30;137220;-39
2021/08/16 06:29:08;;;;;;;4.82;2.13;;;17.10;99.90;;;16.01;78.62;100656.09;2569096;30;136779;-39
2021/08/16 06:31:35;;;;;;;;;;;17.10;99.90;;;16.10;78.59;100659.25;2568813;30;136784;-39
2021/08/16 06:34:06;;;;;;;7.45;2.42;;;17.20;99.90;;;16.22;78.19;100662.75;2569691;30;137463;-39
2021/08/16 06:36:40;;;;;;;6.35;2.15;;;17.30;99.90;;;16.30;77.83;100655.13;2567511;30;138128;-39
2021/08/16 06:39:18;;;;;;;9.00;2.38;;;17.40;99.90;;;16.39;76.87;100646.19;2568208;30;136868;-39
2021/08/16 06:41:49;;;;;;;8.73;2.15;;;17.50;99.90;;;16.60;77.35;100643.69;2569634;30;137488;-39
2021/08/16 06:44:25;;;;;;;5.55;2.55;;;17.60;99.90;;;16.72;76.05;100646.28;2569921;30;137259;-38
2021/08/16 06:46:54;;;;;;;6.60;2.45;;;17.70;99.90;;;16.80;75.51;100645.81;2568914;30;137326;-39
2021/08/16 06:49:22;;;;;;;8.63;2.55;;;17.80;99.90;;;16.81;75.21;100646.66;2570067;30;136896;-39
2021/08/16 06:51:50;;;;;;;8.40;2.50;;;17.90;99.90;;;16.78;75.56;100636.16;2567335;30;137690;-39
2021/08/16 06:54:19;;;;;;;6.43;2.42;;;17.90;99.90;;;16.79;75.93;100641.41;2570125;30;136911;-39
2021/08/16 06:57:00;;;;;;;;;;;17.90;99.90;;;16.93;75.29;100629.97;2569780;30;137885;-39
2021/08/16 06:59:28;;;;;;;9.27;2.70;;;18.00;99.90;;;17.20;74.95;100624.47;2569817;30;137137;-39
2021/08/16 07:01:55;;;;;;;12.55;2.53;;;18.10;99.90;;;17.39;73.50;100624.91;2569171;30;137717;-39
2021/08/16 07:04:24;;;;;;;7.97;2.35;;;18.30;99.90;;;17.64;73.04;100626.19;2569343;30;136952;-39
2021/08/16 07:06:52;;;;;;;8.90;2.58;;;18.50;99.90;;;17.79;72.17;100636.50;2569438;30;138109;-39
2021/08/16 07:09:20;;;;;;;;;;;18.70;99.90;;;18.00;71.68;100631.13;2568963;30;137030;-39
2021/08/16 07:11:48;;;;;;;10.05;2.50;;;18.80;99.90;;;18.24;71.38;100630.72;2569240;30;137303;-39
2021/08/16 07:14:16;;;;;;;5.95;2.08;;;19.00;99.90;;;18.32;69.55;100640.44;2569773;30;137016;-39
2021/08/16 07:16:43;;;;;;;5.80;1.95;;;19.20;99.90;;;18.34;70.21;100646.50;2570048;30;138545;-39
2021/08/16 07:19:11;;;;;;;6.60;2.08;;;19.30;99.90;;;18.36;70.32;100647.88;2569488;30;137464;-39
2021/08/16 07:21:39;;;;;;;5.70;1.98;;;19.40;99.90;;;18.31;70.24;100644.28;2567351;30;137226;-40
2021/08/16 07:24:06;;;;;;;6.00;1.98;;;19.40;99.90;;;18.28;71.49;100653.09;2569607;30;137610;-40
2021/08/16 07:26:34;;;;;;;;;;;19.30;99.90;;;18.22;70.80;100660.53;2569879;30;138381;-40
2021/08/16 07:29:01;;;;;;;6.00;1.95;;;19.30;99.90;;;18.06;70.66;100643.88;2568752;30;137290;-39
2021/08/16 07:31:29;;;;;;;4.95;1.90;;;19.20;99.90;;;18.07;71.58;100653.00;2567529;30;138411;-39
2021/08/16 07:33:57;;;;;;;7.63;2.53;;;19.10;99.90;;;18.10;69.92;100669.03;2568832;30;137292;-38
2021/08/16 07:36:25;;;;;;;6.40;2.35;;;19.20;99.90;;;17.95;70.50;100678.84;2569926;30;138884;-39
2021/08/16 07:38:52;;;;;;;5.78;1.95;;;19.10;99.90;;;17.89;71.87;100676.28;2569141;30;138325;-39
2021/08/16 07:41:20;;;;;;;7.28;2.10;;;19.00;99.90;;;17.86;72.45;100677.66;2569146;30;137475;-38
2021/08/16 07:43:47;;;;;;;6.60;2.45;;;19.00;99.90;;;17.75;71.62;100681.44;2570647;30;137719;-39
2021/08/16 07:46:16;;;;;;;4.53;1.98;;;18.90;99.90;;;17.66;72.88;100670.91;2567359;30;138394;-40
2021/08/16 07:48:44;;;;;;;8.27;2.40;;;18.80;99.90;;;17.58;72.48;100676.91;2568951;30;137359;-40
2021/08/16 07:51:11;;;;;;;;;;;18.70;99.90;;;17.56;72.41;100676.34;2569123;30;139718;-39
2021/08/16 07:53:39;;;;;;;7.93;2.28;;;18.70;99.90;;;17.51;73.26;100676.31;2570725;30;137041;-39
2021/08/16 07:56:06;;;;;;;10.68;2.60;;;18.70;99.90;;;17.54;73.26;100679.34;2568817;30;137936;-40
2021/08/16 07:58:34;;;;;;;6.75;2.10;;;18.70;99.90;;;17.47;72.70;100677.91;2571711;30;138343;-39
2021/08/16 08:01:01;;;;;;;7.03;2.08;;;18.60;99.90;;;17.42;73.40;100675.09;2569582;30;137702;-39
2021/08/16 08:03:32;;;;;;;6.15;2.03;;;18.60;99.90;;;17.40;73.96;100680.91;2569375;30;136996;-39
2021/08/16 08:06:00;;;;;;;6.13;1.92;;;18.50;99.90;;;17.32;74.04;100676.69;2567263;30;138402;-39
2021/08/16 08:08:27;;;;;;;5.82;2.38;;;18.50;99.90;;;17.33;74.10;100686.63;2569411;30;138880;-39
2021/08/16 08:10:55;;;;;;;6.03;2.25;;;18.50;99.90;;;17.46;74.99;100679.00;2568500;30;137402;-39
2021/08/16 08:13:22;;;;;;;4.47;2.08;;;18.50;99.90;;;17.66;74.31;100676.41;2570072;30;137440;-39
2021/08/16 08:15:50;;;;;;;5.90;2.10;;;18.60;99.90;;;17.83;73.68;100664.41;2570324;30;138032;-39
2021/08/16 08:18:17;;;;;;;7.07;2.17;;;18.80;99.90;;;17.96;72.94;100666.69;2566008;30;137328;-39
2021/08/16 08:20:45;;;;;;;7.90;2.13;;;18.90;99.90;;;18.08;72.45;100665.72;2569517;30;137807;-39
2021/08/16 08:23:12;;;;;;;8.95;2.55;;;19.00;99.90;;;18.22;71.17;100655.84;2566468;30;138118;-39
2021/08/16 08:25:41;;;;;;;3.38;2.05;;;19.20;99.90;;;18.55;73.26;100666.75;2569468;30;138473;-39
2021/08/16 08:28:14;;;;;;;5.47;2.03;;;19.40;99.90;;;18.74;69.58;100658.00;2566530;30;139743;-39
2021/08/16 08:30:44;;;;;;;5.50;2.17;;;19.60;99.90;;;18.85;69.94;100665.19;2570584;30;138563;-39
2021/08/16 08:33:15;;;;;;;4.15;1.80;;;19.70;99.90;;;18.83;68.68;100672.94;2570969;30;138678;-39
2021/08/16 08:35:47;;;;;;;4.43;1.80;;;19.80;99.90;;;18.81;69.60;100673.19;2569807;30;138623;-39
2021/08/16 08:38:16;;;;;;;7.18;1.80;;;19.80;99.90;;;18.61;69.53;100681.44;2579904;30;137940;-42
2021/08/16 08:40:45;;;;;;;8.52;1.90;;;19.70;99.90;;;18.60;69.76;100682.53;2568783;30;139227;-40
2021/08/16 08:43:15;;;;;;;7.13;2.08;;;19.70;99.90;;;18.45;69.70;100675.81;2567595;30;137273;-42
2021/08/16 08:45:45;;;;;;;4.80;1.63;;;19.60;99.90;;;18.43;70.73;100678.03;2568119;30;138306;-40
2021/08/16 08:48:17;;;;;;;10.35;2.35;;;19.50;99.90;;;18.54;72.67;100678.91;2566869;30;138306;-40
2021/08/16 08:50:46;;;;;;;5.65;2.38;;;19.60;99.90;;;18.62;70.47;100686.66;2567317;30;138493;-40
2021/08/16 08:53:14;;;;;;;7.88;1.88;;;19.60;99.90;;;18.61;70.93;100678.66;2567626;30;136716;-40
2021/08/16 08:55:44;;;;;;;5.88;1.98;;;19.60;99.90;;;18.64;69.94;100678.13;2567543;30;139110;-41
2021/08/16 08:58:14;;;;;;;5.50;2.00;;;19.60;99.90;;;18.67;71.66;100683.09;2567932;30;138310;-42
2021/08/16 09:00:41;;;;;;;;;;;19.70;99.90;;;18.69;69.56;100678.13;2566240;30;139070;-40
2021/08/16 09:03:10;;;;;;;7.57;2.35;;;19.70;99.90;;;18.69;70.12;100681.72;2568364;30;137943;-41
2021/08/16 09:05:56;;;;;;;5.95;2.30;;;19.70;99.90;;;18.63;69.04;100673.69;2568200;30;138567;-41
2021/08/16 09:08:26;;;;;;;5.78;2.08;;;19.70;99.90;;;18.61;70.99;100678.66;2566066;30;137557;-41
2021/08/16 09:11:15;;;;;;;5.25;2.03;;;19.70;99.90;;;18.53;70.10;100674.47;2568122;30;136788;-40
2021/08/16 09:14:03;;;;;;;5.20;1.90;;;19.60;99.90;;;18.51;70.88;100677.50;2567959;30;137512;-40
2021/08/16 09:16:35;;;;;;;4.63;2.30;;;19.60;99.90;;;18.46;70.31;100677.50;2568151;30;137985;-41
2021/08/16 09:19:18;;;;;;;5.78;2.17;;;19.60;99.90;;;18.45;69.89;100677.78;2568359;30;137022;-40
2021/08/16 09:21:56;;;;;;;4.25;1.77;;;19.50;99.90;;;18.48;68.95;100678.03;2567997;30;138136;-41
2021/08/16 09:24:33;;;;;;;5.78;2.05;;;19.50;99.90;;;18.61;69.84;100673.13;2566923;30;137820;-41
2021/08/16 09:27:10;;;;;;;7.32;2.03;;;19.60;99.90;;;18.72;69.94;100679.53;2567217;30;138904;-42
2021/08/16 09:29:51;;;;;;;5.43;2.30;;;19.70;99.90;;;18.77;69.42;100672.06;2568025;30;138298;-41
2021/08/16 09:32:30;;;;;;;5.53;1.95;;;19.80;99.90;;;18.86;68.21;100677.09;2568196;30;138438;-40
2021/08/16 09:35:06;;;;;;;6.10;2.10;;;19.80;99.90;;;18.81;68.35;100678.72;2568057;30;136924;-41
2021/08/16 09:37:35;;;;;;;4.45;1.83;;;19.90;99.90;;;18.75;68.39;100654.94;2568656;30;138208;-41
2021/08/16 09:40:14;;;;;;;4.07;1.70;;;19.90;99.90;;;18.86;68.90;100669.63;2568242;30;138432;-41
2021/08/16 09:42:49;;;;;;;3.75;1.95;;;19.90;99.90;;;18.91;71.14;100672.38;2567781;30;138147;-40
2021/08/16 09:45:33;;;;;;;6.65;2.10;;;19.90;99.90;;;18.94;71.06;100671.84;2566102;30;137368;-40
2021/08/16 09:48:03;;;;;;;4.72;2.00;;;20.00;99.90;;;18.86;68.78;100680.66;2567808;30;137994;-40
2021/08/16 09:50:44;;;;;;;5.28;2.05;;;19.90;99.90;;;18.88;69.36;100674.88;2567416;30;139227;-40
2021/08/16 09:53:17;;;;;;;7.38;1.98;;;19.90;99.90;;;18.83;70.58;100668.25;2567952;30;138360;-45
2021/08/16 09:55:57;;;;;;;5.07;2.40;;;19.90;99.90;;;18.74;71.54;100671.81;2568774;30;137569;-40
2021/08/16 09:58:24;;;;;;;6.53;2.25;;;19.80;99.90;;;18.58;71.28;100684.75;2567949;30;138387;-41
2021/08/16 10:00:53;;;;;;;6.95;2.10;;;19.70;99.90;;;18.47;72.57;100695.72;2567661;30;137412;-40
2021/08/16 10:03:22;;;;;;;7.63;2.20;;;19.60;99.90;;;18.39;72.25;100696.25;2567856;30;138376;-41
2021/08/16 10:05:50;;;;;;;4.65;1.98;;;19.60;99.90;;;18.40;74.20;100700.66;2565026;30;137447;-40
2021/08/16 10:08:24;;;;;;;6.05;2.13;;;19.50;99.90;;;18.37;75.02;100699.25;2566094;30;139065;-40
2021/08/16 10:10:57;;;;;;;6.57;2.42;;;19.50;99.90;;;18.24;74.50;100716.31;2569044;30;136948;-40
2021/08/16 10:13:26;;;;;;;4.95;1.98;;;19.40;99.90;;;18.13;74.99;100715.41;2566990;30;137199;-40
2021/08/16 10:16:01;;;;;;;6.32;2.17;;;19.30;99.90;;;18.07;75.95;100714.53;2567293;30;137619;-40